Date,TemperatureHighF,TemperatureAvgF,TemperatureLowF,DewpointHighF,DewpointAvgF,DewpointLowF,HumidityHigh,HumidityAvg,HumidityLow,PressureMaxIn,PressureMinIn,WindSpeedMaxMPH,WindSpeedAvgMPH,GustSpeedMaxMPH,PrecipitationSumIn
2012-1-1,49.1,39.0,29.8,35.5,17.1,-6.3,84,47,15,30.35,29.65,19,12,29,0.02
2012-1-2,29.8,24.1,18.1,11.9,3.0,-8.8,51,41,24,30.52,30.32,17,10,24,0.00
2012-1-3,37.4,24.6,12.2,6.6,-0.9,-15.0,62,38,13,30.53,30.09,9,4,13,0.00
2012-1-4,49.3,37.6,30.6,26.5,17.4,1.9,59,45,30,30.19,30.02,10,5,17,0.00
2012-1-5,61.5,45.7,33.3,29.4,24.6,19.6,63,47,23,30.15,29.85,12,5,15,0.00
2012-1-6,64.6,51.0,42.1,33.0,28.1,21.8,60,45,23,29.95,29.75,14,6,21,0.00
2012-1-7,43.0,37.1,30.9,27.8,25.2,21.5,69,62,54,30.17,29.95,7,3,10,0.00
2012-1-8,44.2,39.4,29.8,33.1,28.2,22.6,77,65,56,30.38,30.30,4,2,5,0.00
2012-1-9,50.7,36.6,23.9,29.3,23.0,13.1,85,62,25,30.31,30.11,11,4,14,0.00
2012-1-10,59.4,42.5,32.0,29.4,22.3,7.2,67,50,16,30.12,29.79,9,3,17,0.00
2012-1-11,57.6,42.1,31.3,39.0,27.9,22.3,79,60,31,29.80,29.56,12,4,19,0.00
2012-1-12,30.9,26.9,23.5,24.9,19.3,15.2,78,73,70,29.72,29.69,13,11,21,0.00
2012-1-13,15.8,10.5,8.6,4.6,0.3,-1.7,64,62,60,30.16,30.13,5,1,6,0.00
2012-1-14,27.9,19.9,9.0,17.8,11.0,-0.6,78,68,61,30.30,30.06,7,2,11,0.00
2012-1-15,42.8,31.7,19.9,28.3,21.8,14.6,80,67,55,30.35,30.01,8,4,15,0.05
2012-1-16,66.7,50.3,35.6,54.5,40.6,26.3,90,70,53,30.00,29.67,7,4,14,0.07
2012-1-17,57.4,30.8,16.0,55.3,24.0,2.3,98,76,54,30.38,29.62,10,2,23,0.78
2012-1-18,32.9,21.5,10.6,14.1,7.4,0.7,67,55,36,30.39,29.93,5,1,11,0.00
2012-1-19,30.4,21.4,11.3,18.4,6.4,-4.9,64,52,39,30.20,29.89,6,3,17,0.00
2012-1-20,24.8,18.0,10.6,12.5,3.3,-6.0,71,52,41,30.21,29.91,5,2,13,0.00
2012-1-21,36.3,23.9,17.2,21.0,13.7,8.6,82,65,40,30.27,30.03,4,2,13,0.00
2012-1-22,48.7,35.6,25.2,48.5,34.0,20.6,99,94,82,30.03,29.42,5,4,14,0.00
2012-1-23,48.4,37.1,31.8,48.1,29.5,20.5,99,74,58,30.08,29.41,13,6,28,0.04
2012-1-24,43.0,32.7,25.7,25.3,21.2,17.3,78,63,44,30.36,30.07,5,2,16,0.00
2012-1-25,33.8,31.5,28.2,30.0,26.4,22.0,87,81,72,30.35,30.03,4,1,8,0.05
2012-1-26,37.9,34.6,32.2,36.4,31.8,28.9,94,89,80,30.03,29.75,5,2,11,0.21
2012-1-27,39.4,35.0,28.9,30.1,27.4,24.2,84,74,57,30.05,29.81,5,2,13,0.00
2012-1-28,43.0,34.0,26.4,30.2,18.6,4.7,89,56,20,30.29,30.02,10,5,21,0.00
2012-1-29,43.3,34.9,29.8,19.1,14.2,3.5,58,44,20,30.29,30.14,8,4,19,0.00
2012-1-30,66.0,47.9,32.9,37.7,28.6,18.0,63,48,29,30.20,29.93,8,4,18,0.00
2012-1-31,64.2,54.5,45.0,50.0,42.1,32.4,82,63,52,30.03,29.87,12,4,23,0.00
2012-2-1,56.5,45.4,36.5,44.9,36.3,30.6,86,71,48,30.21,30.04,4,1,9,0.00
2012-2-2,64.4,46.7,34.0,38.4,32.4,22.2,93,63,20,30.35,30.19,5,1,11,0.00
2012-2-3,57.7,47.0,38.1,42.2,35.4,27.2,94,67,32,30.38,30.14,4,2,17,0.60
2012-2-4,43.7,40.6,38.1,42.4,39.4,37.3,98,96,94,30.20,30.09,7,3,19,0.30
2012-2-5,50.9,39.4,28.9,37.3,31.5,24.7,97,76,41,30.34,30.20,4,2,10,0.02
2012-2-6,45.0,33.5,28.4,32.2,27.4,23.1,94,79,55,30.32,30.19,6,2,14,0.00
2012-2-7,33.4,31.7,28.8,28.5,26.9,23.1,84,82,79,30.40,30.21,4,2,11,0.00
2012-2-8,33.3,30.3,27.5,26.1,21.9,15.6,85,71,59,30.48,30.39,4,2,10,0.00
2012-2-9,34.3,29.4,21.6,25.2,18.0,11.3,75,62,50,30.41,30.16,6,2,10,0.00
2012-2-10,37.9,30.5,21.2,32.0,21.5,9.7,79,69,53,30.31,30.01,8,4,18,0.00
2012-2-11,28.0,18.6,10.4,12.0,-3.2,-13.5,71,40,16,30.56,30.31,9,5,20,0.00
2012-2-12,38.5,23.6,13.1,1.8,-4.5,-12.6,47,31,12,30.56,30.30,7,3,15,0.00
2012-2-13,34.9,29.6,23.9,27.3,17.5,2.0,88,63,35,30.30,29.87,6,2,14,0.00
2012-2-14,36.7,33.3,30.4,30.5,28.5,27.1,89,82,72,30.05,29.85,6,3,11,0.05
2012-2-15,43.5,39.1,32.0,40.9,35.1,27.1,95,86,80,30.06,29.95,3,2,9,0.02
2012-2-16,50.5,40.7,34.2,41.2,32.0,21.1,96,74,34,30.25,29.98,6,2,13,0.12
2012-2-17,56.8,42.6,31.5,30.8,25.1,17.4,72,53,22,30.25,30.09,10,2,21,0.00
2012-2-18,47.8,36.5,28.4,27.9,20.5,14.6,70,54,29,30.24,30.14,6,2,13,0.00
2012-2-19,46.0,32.8,24.3,22.0,15.7,7.3,70,52,21,30.21,30.14,4,2,10,0.00
2012-2-20,48.7,36.8,24.6,27.1,21.4,14.4,72,55,26,30.28,29.79,5,3,11,0.00
2012-2-21,55.2,43.9,37.2,39.3,30.1,17.0,89,62,23,29.86,29.68,11,5,26,0.00
2012-2-22,56.3,45.7,36.7,31.0,26.6,22.5,62,48,30,29.79,29.47,11,4,20,0.00
2012-2-23,63.1,47.7,40.5,42.9,37.2,28.7,86,68,46,29.53,29.32,6,2,13,0.09
2012-2-24,45.1,36.4,30.9,38.7,22.8,14.2,79,59,37,30.15,29.49,11,7,23,0.00
2012-2-25,41.2,31.1,24.3,19.7,10.4,0.8,65,43,21,30.34,30.13,9,4,21,0.00
2012-2-26,65.1,45.7,29.5,28.8,17.8,6.3,57,37,10,30.26,30.01,12,4,27,0.00
2012-2-27,49.6,39.0,31.3,30.9,16.6,4.3,65,43,17,30.49,30.16,6,2,14,0.00
2012-2-28,56.1,44.1,31.6,50.5,30.1,17.9,92,60,29,30.48,29.67,4,3,11,0.43
2012-2-29,61.7,53.9,37.9,58.6,35.7,17.9,95,54,19,29.85,29.55,21,10,38,0.02
2012-3-1,61.3,44.0,29.5,34.8,28.4,20.9,80,57,21,29.94,29.61,5,2,12,0.00
2012-3-2,47.7,40.0,32.7,44.7,34.6,29.6,94,81,64,29.83,29.39,11,4,24,0.14
2012-3-3,38.5,33.3,28.2,30.2,21.9,16.9,89,64,47,29.95,29.81,8,4,18,0.00
2012-3-4,38.3,30.2,23.0,27.6,20.3,14.2,89,68,39,30.13,29.90,5,2,12,0.00
2012-3-5,47.5,33.5,20.3,26.4,21.3,15.7,82,63,37,30.44,30.13,6,3,14,0.11
2012-3-6,75.2,56.5,39.0,37.9,25.4,11.2,57,35,10,30.17,29.92,14,6,34,0.00
2012-3-7,71.1,62.6,54.5,54.6,45.8,35.0,74,55,44,30.01,29.90,11,5,30,0.00
2012-3-8,66.2,41.4,34.0,53.2,30.4,20.4,95,67,39,30.44,29.90,11,4,23,0.35
2012-3-9,52.0,39.8,32.0,24.6,13.5,-3.0,70,39,14,30.59,30.43,6,2,14,0.00
2012-3-10,66.2,47.0,30.4,30.1,18.9,5.9,62,38,10,30.50,30.27,7,3,17,0.00
2012-3-11,66.7,51.8,39.2,53.1,37.8,27.4,98,61,33,30.29,29.97,6,3,16,0.19
2012-3-12,78.8,63.4,53.2,58.2,52.7,44.2,99,74,30,29.99,29.80,13,5,27,0.05
2012-3-13,82.9,64.1,48.6,57.2,48.9,36.6,99,65,20,30.13,29.99,4,1,9,0.00
2012-3-14,84.4,70.7,57.4,63.3,58.8,54.8,94,68,42,30.07,29.94,10,4,21,0.01
2012-3-15,84.2,70.2,61.7,63.1,59.6,55.7,94,71,43,30.10,29.96,11,4,21,0.18
2012-3-16,79.5,66.4,58.3,61.2,57.0,52.5,92,74,40,30.13,30.02,8,2,16,0.02
2012-3-17,80.1,64.9,59.7,66.7,59.5,55.7,99,84,51,30.09,29.95,13,2,29,0.19
2012-3-18,80.4,69.4,59.0,66.5,60.6,55.1,95,74,55,30.08,29.95,5,3,14,0.83
2012-3-19,81.5,71.4,64.8,64.2,60.5,52.5,93,70,49,30.02,29.83,6,4,17,0.02
2012-3-20,82.8,72.5,64.2,59.8,53.7,45.0,78,54,29,29.99,29.89,8,4,22,0.00
2012-3-21,81.9,73.6,65.3,57.6,55.7,52.1,75,55,37,30.06,29.95,7,3,17,0.00
2012-3-22,71.4,62.4,54.7,59.1,56.4,52.6,99,82,58,30.10,29.97,9,2,18,0.50
2012-3-23,70.5,57.9,50.4,57.6,52.2,48.0,99,83,49,30.00,29.80,6,1,16,0.02
2012-3-24,75.0,60.2,48.9,57.8,53.5,47.8,99,81,48,29.98,29.82,5,2,11,0.02
2012-3-25,77.7,65.0,54.5,59.3,55.2,51.7,99,74,42,30.10,29.98,4,1,11,0.00
2012-3-26,66.4,57.3,49.8,52.3,41.8,34.4,92,59,31,30.28,30.08,5,2,15,0.00
2012-3-27,80.2,63.3,49.1,54.8,45.9,38.1,69,54,37,30.16,29.89,7,3,18,0.00
2012-3-28,80.8,68.1,55.6,56.2,41.5,20.7,75,43,11,30.06,29.92,5,2,12,0.00
2012-3-29,60.8,54.3,51.1,55.1,45.8,35.1,97,75,41,30.12,29.86,3,1,9,0.48
2012-3-30,77.0,63.3,51.8,61.1,53.6,47.2,87,72,45,29.91,29.73,8,3,17,0.02
2012-3-31,76.5,58.7,46.9,55.3,48.2,44.3,93,71,35,29.98,29.78,3,1,8,0.00
2012-4-1,89.1,72.5,58.6,63.5,56.6,48.0,92,62,25,29.78,29.60,8,3,17,0.00
2012-4-2,92.7,73.8,58.5,65.5,60.1,55.9,94,66,32,29.83,29.64,5,1,11,0.00
2012-4-3,84.6,72.6,59.7,65.5,60.9,54.2,92,69,42,29.89,29.80,7,2,14,0.11
2012-4-4,66.4,58.3,50.4,54.2,46.2,30.8,82,65,30,29.90,29.77,5,3,14,0.02
2012-4-5,65.8,51.9,43.0,41.5,35.1,22.2,93,57,20,30.13,29.83,6,3,16,0.58
2012-4-6,65.8,48.3,34.5,39.8,31.3,12.7,82,56,13,30.28,30.13,5,1,11,0.00
2012-4-7,65.3,54.9,41.9,50.2,40.4,36.1,87,61,37,30.28,30.17,6,2,14,0.00
2012-4-8,68.9,55.2,41.4,49.0,28.0,4.3,96,49,10,30.39,30.16,8,2,15,0.07
2012-4-9,71.2,58.3,46.0,36.5,22.2,5.6,65,31,10,30.19,30.05,7,3,17,0.00
2012-4-10,60.3,49.2,38.3,25.1,14.0,2.7,52,27,10,30.24,30.11,6,3,19,0.00
2012-4-11,59.9,44.8,30.7,24.7,19.0,6.6,67,39,12,30.34,30.18,4,1,11,0.00
2012-4-12,65.7,51.7,37.4,32.8,24.4,13.5,63,38,13,30.31,30.13,6,1,13,0.00
2012-4-13,55.4,52.3,47.5,47.4,40.0,30.8,95,66,41,30.20,30.01,3,2,11,0.34
2012-4-14,73.0,61.9,52.3,65.8,59.4,47.2,99,92,72,30.01,29.74,4,1,9,0.78
2012-4-15,75.9,69.6,57.9,65.9,61.1,56.6,99,75,64,29.77,29.59,7,4,21,0.46
2012-4-16,66.4,57.2,50.4,56.3,44.4,39.7,93,64,41,30.26,29.64,17,6,36,0.02
2012-4-17,72.3,57.5,44.6,45.4,40.9,31.6,90,58,23,30.39,30.26,3,1,8,0.00
2012-4-18,75.9,61.9,48.6,50.0,46.4,42.9,91,60,34,30.26,30.01,8,2,17,0.00
2012-4-19,78.3,66.1,53.8,50.6,46.6,39.3,80,52,25,30.03,29.74,6,2,14,0.00
2012-4-20,64.8,51.0,45.3,54.3,43.8,36.0,99,78,51,30.06,29.70,5,3,15,0.21
2012-4-21,58.8,48.6,36.3,39.4,34.9,26.8,97,63,30,30.09,29.98,3,1,9,0.00
2012-4-22,58.5,50.0,39.9,45.4,34.3,20.6,98,59,24,30.16,29.91,4,2,15,0.05
2012-4-23,63.3,50.2,35.6,38.1,32.1,26.6,74,52,28,30.14,29.93,6,2,16,0.00
2012-4-24,77.5,61.1,46.9,51.5,43.8,37.3,75,55,34,29.93,29.64,5,2,13,0.00
2012-4-25,85.6,70.6,54.5,62.5,56.2,50.1,90,63,35,29.67,29.54,7,2,14,0.07
2012-4-26,76.5,66.2,50.9,63.0,50.3,36.2,91,60,31,30.11,29.62,5,2,14,0.00
2012-4-27,60.3,52.8,41.9,35.6,17.3,4.6,60,28,11,30.23,29.95,3,1,14,0.00
2012-4-28,68.9,58.0,50.0,57.5,48.0,27.3,90,71,32,30.11,29.85,4,1,11,0.28
2012-4-29,57.9,51.9,46.4,56.9,50.1,42.9,99,94,84,30.17,29.99,3,1,12,0.96
2012-4-30,67.8,61.6,55.2,64.2,59.6,53.8,99,93,84,30.03,29.93,5,2,11,1.93
2012-5-1,79.9,66.2,53.6,66.8,61.1,52.8,99,85,59,30.02,29.81,9,2,20,0.80
2012-5-2,88.2,75.9,68.4,70.9,65.4,61.2,87,71,41,29.99,29.81,5,2,14,0.00
2012-5-3,85.3,76.6,68.9,70.4,67.4,64.4,88,74,56,30.01,29.85,7,2,14,0.00
2012-5-4,80.4,71.2,62.6,68.5,65.5,59.9,97,83,64,30.08,29.88,8,1,16,1.13
2012-5-5,89.6,77.1,66.0,73.9,70.1,65.8,99,81,56,29.95,29.88,2,0,7,0.18
2012-5-6,90.7,80.1,72.0,73.9,70.5,65.5,96,75,45,29.93,29.78,5,1,13,0.00
2012-5-7,74.3,68.3,60.3,68.5,62.7,53.0,95,83,69,29.95,29.81,5,1,11,0.07
2012-5-8,74.8,64.4,56.5,53.0,43.7,30.4,86,52,21,30.02,29.94,7,2,17,0.00
2012-5-9,71.4,60.5,49.5,48.1,45.0,41.4,83,58,36,30.03,29.95,5,2,14,0.00
2012-5-10,73.6,62.4,50.7,49.5,45.6,40.2,85,57,31,30.06,29.98,3,1,8,0.00
2012-5-11,77.4,65.9,53.1,51.7,47.4,39.8,75,53,33,30.17,30.05,5,1,11,0.00
2012-5-12,77.5,67.4,58.6,57.8,50.5,44.3,80,57,32,30.23,30.16,4,1,8,0.02
2012-5-13,77.0,64.1,51.8,53.9,37.1,15.1,83,44,11,30.25,30.12,4,2,11,0.00
2012-5-14,80.8,66.6,50.7,43.9,30.7,14.9,65,33,10,30.17,30.04,3,1,11,0.00
2012-5-15,82.8,70.9,55.6,53.3,44.4,29.9,61,40,18,30.08,29.93,6,2,14,0.00
2012-5-16,77.2,67.6,59.4,54.4,43.0,27.6,67,44,21,30.12,29.95,4,2,13,0.00
2012-5-17,82.4,66.2,50.4,42.7,31.6,16.6,52,31,10,30.15,30.01,2,0,8,0.00
2012-5-18,86.9,73.2,55.9,58.8,50.3,37.2,67,46,30,30.07,29.93,5,1,11,0.00
2012-5-19,90.5,78.6,64.4,62.8,59.0,54.7,81,53,30,30.04,29.95,7,2,21,0.00
2012-5-20,87.4,76.5,66.0,67.6,61.5,55.8,91,62,40,30.13,29.98,9,3,20,0.07
2012-5-21,75.2,64.3,54.0,56.0,46.6,37.4,76,55,28,30.21,30.11,4,2,12,0.02
2012-5-22,79.7,65.5,51.8,51.7,47.5,40.5,94,57,25,30.13,29.92,3,1,8,0.00
2012-5-23,84.2,71.1,55.4,51.6,47.9,40.2,76,47,23,29.94,29.72,5,1,13,0.00
2012-5-24,91.0,78.8,65.1,62.3,54.7,48.1,60,45,28,29.76,29.59,7,3,19,0.00
2012-5-25,89.2,79.7,70.0,70.3,62.3,53.8,80,57,35,30.03,29.77,5,1,11,0.00
2012-5-26,93.6,82.6,72.0,72.9,69.7,66.7,84,66,45,30.08,29.96,5,1,12,0.00
2012-5-27,92.1,82.5,72.0,67.7,63.7,58.2,76,55,33,30.03,29.86,7,2,16,0.00
2012-5-28,90.1,83.2,73.6,69.4,64.8,62.4,73,55,42,29.89,29.77,10,4,24,0.00
2012-5-29,87.1,75.7,62.1,66.0,53.4,33.8,84,50,16,29.97,29.81,5,1,14,0.05
2012-5-30,79.5,68.7,59.0,52.9,46.3,42.5,67,46,29,30.01,29.88,4,1,10,0.00
2012-5-31,62.4,55.5,50.4,52.5,49.2,43.1,98,81,51,29.95,29.83,5,2,14,0.25
2012-6-1,69.3,57.2,46.6,48.1,43.5,37.5,93,64,32,29.96,29.89,4,2,14,0.00
2012-6-2,77.4,64.3,52.5,53.0,49.2,42.1,81,60,40,29.93,29.81,10,3,16,0.00
2012-6-3,84.2,70.1,55.9,58.2,52.7,44.1,88,58,29,29.94,29.85,5,1,9,0.00
2012-6-4,84.0,72.7,64.0,66.6,61.1,57.5,87,68,47,29.93,29.81,6,1,15,0.00
2012-6-5,83.1,69.7,55.8,59.5,51.5,45.4,90,56,29,30.01,29.93,4,1,11,0.00
2012-6-6,79.5,67.9,55.0,54.4,48.3,44.0,85,53,30,30.11,30.01,3,1,10,0.00
2012-6-7,84.4,70.8,56.3,54.8,47.2,39.9,82,47,23,30.17,30.08,2,0,8,0.00
2012-6-8,87.3,73.9,59.7,55.0,48.6,43.9,70,44,23,30.14,29.98,5,1,14,0.00
2012-6-9,90.3,77.5,61.9,60.6,55.6,50.7,70,48,28,30.00,29.85,6,2,16,0.00
2012-6-10,88.3,78.7,68.7,66.6,61.8,56.7,74,57,39,29.96,29.85,4,1,18,0.00
2012-6-11,79.3,73.5,69.3,71.9,68.1,66.1,98,84,68,29.98,29.81,5,2,10,0.09
2012-6-12,79.9,70.1,58.8,67.1,47.7,16.6,90,51,10,30.16,29.98,4,2,14,0.00
2012-6-13,80.2,68.7,56.1,52.7,49.5,45.0,78,52,32,30.20,30.06,3,1,9,0.00
2012-6-14,88.5,74.7,60.4,60.7,56.1,51.9,80,55,34,30.10,29.96,5,1,14,0.00
2012-6-15,90.9,79.2,67.1,63.9,60.7,57.5,72,55,37,30.07,29.95,5,1,10,0.00
2012-6-16,78.3,75.3,70.3,69.8,64.9,62.1,98,70,59,30.08,29.96,8,2,12,0.64
2012-6-17,81.5,71.7,70.3,72.9,70.2,69.8,98,95,71,30.00,29.82,3,3,4,0.64
2012-6-18,92.5,82.5,73.4,72.4,67.9,63.5,86,63,42,29.89,29.77,9,4,21,0.00
2012-6-19,92.7,82.4,73.4,71.9,68.5,65.4,84,64,46,30.00,29.89,8,3,15,0.00
2012-6-20,93.6,82.1,72.1,69.5,64.7,59.6,68,56,39,30.07,29.91,7,2,17,0.00
2012-6-21,84.9,77.7,69.4,69.9,63.1,55.9,77,62,41,30.05,29.97,5,2,12,0.00
2012-6-22,86.0,74.6,62.4,61.0,56.5,50.8,87,56,31,30.08,30.00,3,1,10,0.00
2012-6-23,83.5,75.1,64.6,60.6,56.9,51.1,78,55,35,30.08,29.98,4,0,11,0.00
2012-6-24,91.6,78.5,68.2,72.2,64.1,58.5,80,63,36,30.10,29.92,5,1,17,0.00
2012-6-25,86.9,77.1,64.2,70.1,56.4,39.2,82,52,22,30.04,29.93,4,2,16,0.00
2012-6-26,86.0,71.3,54.9,54.6,51.2,43.9,85,52,29,30.07,29.92,3,1,12,0.00
2012-6-27,94.1,78.9,61.7,62.7,55.2,50.8,68,46,28,30.02,29.85,6,2,14,0.00
2012-6-28,103.1,89.3,73.2,74.0,64.8,56.3,58,45,32,29.94,29.85,8,4,18,0.00
2012-6-29,102.7,89.2,74.3,69.9,66.0,56.3,77,49,23,29.95,29.80,6,2,12,0.00
2012-6-30,98.2,84.9,72.1,75.4,69.1,64.5,82,61,35,29.91,29.83,4,2,14,0.00
2012-7-1,95.5,84.6,77.7,74.8,69.8,61.5,83,63,33,30.03,29.89,3,1,10,0.00
2012-7-2,101.1,85.3,75.9,72.0,67.8,63.3,82,58,31,30.02,29.94,9,1,18,0.00
2012-7-3,97.5,84.5,72.3,72.2,68.5,64.2,81,61,39,30.00,29.87,6,2,15,0.00
2012-7-4,100.6,88.5,77.5,72.9,66.1,55.8,82,52,23,29.99,29.91,6,2,12,0.00
2012-7-5,103.5,90.1,77.0,73.1,66.6,62.3,69,48,28,30.02,29.95,5,1,11,0.00
2012-7-6,104.7,92.0,80.4,73.0,69.7,65.3,71,50,29,30.04,29.95,4,0,8,0.00
2012-7-7,106.5,92.3,80.1,73.7,69.7,60.5,79,51,23,30.02,29.92,4,1,8,0.00
2012-7-8,90.0,82.0,73.2,77.1,70.8,67.4,84,70,55,30.06,29.96,4,2,11,0.25
2012-7-9,92.3,79.8,66.4,67.7,59.6,52.2,78,52,28,30.08,30.00,4,1,10,0.00
2012-7-10,93.2,81.4,69.6,64.9,60.8,52.5,81,52,33,30.08,30.01,4,1,11,0.00
2012-7-11,91.2,78.2,66.4,65.7,59.5,50.5,87,54,33,30.09,29.66,5,2,14,0.04
2012-7-12,96.6,82.5,68.5,66.4,61.1,55.1,71,50,25,30.10,30.03,3,1,8,0.00
2012-7-13,95.2,81.2,71.8,70.2,66.2,62.8,83,62,35,30.11,30.02,6,1,11,0.00
2012-7-14,90.9,80.9,71.1,71.6,68.2,64.8,89,67,44,30.12,30.01,4,1,9,0.00
2012-7-15,96.4,83.6,72.1,72.7,68.9,64.4,92,64,36,30.15,30.04,4,2,11,0.00
2012-7-16,97.2,85.3,73.9,73.2,69.7,66.5,88,62,40,30.09,29.92,6,2,12,0.00
2012-7-17,99.5,88.3,78.1,72.3,69.2,64.2,81,56,32,29.97,29.88,6,2,12,0.00
2012-7-18,102.9,90.2,78.3,73.4,69.0,62.6,84,53,29,30.00,29.87,6,2,14,0.00
2012-7-19,98.2,86.3,75.6,74.6,70.1,64.4,92,61,34,30.00,29.89,6,2,13,0.19
2012-7-20,83.8,76.4,69.4,70.6,67.7,65.9,92,75,57,30.13,30.00,4,1,10,0.00
2012-7-21,91.2,79.7,66.9,67.6,60.1,51.9,84,56,28,30.17,30.07,3,0,8,0.00
2012-7-22,97.5,84.6,72.0,65.4,62.0,56.9,73,49,29,30.20,30.06,4,1,11,0.00
2012-7-23,103.3,89.4,77.2,71.4,66.9,62.1,70,50,28,30.12,29.98,6,3,11,0.00
2012-7-24,101.3,90.4,79.2,74.3,68.7,64.9,69,51,33,30.03,29.90,5,2,11,0.00
2012-7-25,103.3,90.7,78.3,72.2,68.0,63.4,81,50,28,29.93,29.71,8,3,19,0.00
2012-7-26,89.4,81.5,74.3,73.2,68.6,61.1,92,67,42,29.92,29.72,6,3,14,0.00
2012-7-27,89.8,79.7,68.9,69.2,62.3,53.5,91,59,31,30.07,29.89,6,2,14,0.00
2012-7-28,87.1,76.3,65.1,66.3,62.0,58.9,87,63,40,30.20,30.07,3,1,9,0.00
2012-7-29,91.9,79.2,70.3,69.1,65.5,63.1,81,65,40,30.17,29.97,5,1,11,0.00
2012-7-30,90.5,80.1,72.5,74.4,70.0,67.3,87,73,49,29.98,29.93,5,1,10,0.00
2012-7-31,100.0,84.1,70.9,73.1,67.5,59.4,94,62,29,30.02,29.91,4,2,13,0.00
2012-8-1,96.6,83.4,71.6,68.7,61.3,50.7,84,52,22,30.00,29.89,2,0,7,0.00
2012-8-2,98.6,79.3,71.6,75.0,66.3,58.1,99,68,38,29.93,29.78,13,1,26,1.05
2012-8-3,91.9,80.6,70.5,76.6,72.6,70.0,99,79,53,29.91,29.84,2,0,8,0.00
2012-8-4,94.8,83.6,77.4,78.0,73.5,68.7,94,73,45,29.99,29.85,6,2,15,0.00
2012-8-5,89.4,78.7,70.5,74.3,61.3,52.2,94,60,29,30.20,29.98,4,2,12,0.00
2012-8-6,90.9,78.0,66.9,60.2,56.5,47.4,73,50,23,30.22,30.04,5,1,10,0.00
2012-8-7,97.0,81.7,66.7,61.8,58.5,52.2,76,48,25,30.06,29.97,4,1,10,0.00
2012-8-8,87.8,78.4,72.5,69.4,64.7,60.8,80,63,43,30.06,29.93,4,1,11,0.02
2012-8-9,90.9,76.9,68.9,75.0,65.4,61.4,90,69,39,30.00,29.83,5,2,12,0.32
2012-8-10,79.3,69.2,62.1,64.3,57.1,51.0,92,68,40,30.05,29.92,4,2,14,0.00
2012-8-11,84.2,70.5,56.7,57.3,49.1,34.5,86,52,18,30.11,30.01,3,1,14,0.00
2012-8-12,77.9,69.6,60.8,64.2,54.9,47.3,83,60,49,30.37,29.92,5,0,8,0.16
2012-8-13,77.2,69.3,63.1,64.9,61.9,59.3,94,78,62,30.01,29.87,4,2,12,0.02
2012-8-14,82.6,70.8,58.6,63.1,60.0,54.9,99,72,40,30.05,29.95,5,2,10,0.00
2012-8-15,89.6,75.3,61.0,62.1,58.6,54.1,91,60,31,30.03,29.90,6,2,12,0.00
2012-8-16,90.0,76.0,64.6,70.9,63.7,56.8,80,66,50,30.03,29.82,8,2,15,0.00
2012-8-17,80.6,67.7,55.0,57.2,49.5,38.3,91,56,22,30.10,30.01,3,1,10,0.00
2012-8-18,82.0,68.9,54.5,54.0,46.3,33.2,85,50,18,30.07,29.93,3,1,8,0.00
2012-8-19,83.7,70.7,63.0,54.3,47.0,29.9,68,46,15,30.03,29.93,3,1,11,0.00
2012-8-20,84.7,70.2,56.7,55.6,50.0,42.8,83,52,25,30.04,29.95,4,1,11,0.00
2012-8-21,88.0,73.1,59.9,59.7,46.7,22.8,88,46,10,30.09,30.00,3,1,9,0.02
2012-8-22,94.8,76.7,61.0,58.2,50.5,36.2,74,45,13,30.12,30.02,3,0,7,0.00
2012-8-23,99.0,82.7,65.3,57.5,50.9,30.8,64,38,10,30.11,30.00,6,1,12,0.00
2012-8-24,95.4,80.9,68.9,60.8,55.2,47.7,69,44,21,30.08,29.97,6,2,13,0.00
2012-8-25,92.8,79.7,68.5,69.1,61.2,53.3,78,56,30,30.06,29.96,6,2,17,0.00
2012-8-26,82.8,75.9,70.0,74.6,70.8,66.9,99,85,68,30.05,29.97,6,2,11,0.16
2012-8-27,91.2,78.2,70.9,73.9,65.6,52.5,99,70,28,30.15,30.00,4,2,13,0.00
2012-8-28,94.5,79.2,65.3,66.8,61.1,56.9,87,57,32,30.17,30.03,4,1,11,0.00
2012-8-29,94.5,79.5,67.1,62.7,58.7,55.3,73,51,32,30.11,29.98,4,0,10,0.00
2012-8-30,98.1,81.5,68.5,63.3,59.3,51.4,80,51,21,30.07,29.97,5,1,12,0.00
2012-8-31,81.1,76.5,73.2,75.1,71.4,59.6,99,85,53,30.10,29.95,4,0,8,3.38
2012-9-1,80.1,75.3,73.6,74.3,73.5,73.3,99,94,81,29.96,29.80,4,0,9,1.68
2012-9-2,83.8,78.6,76.1,74.9,72.9,71.1,96,83,69,29.88,29.78,5,2,10,0.28
2012-9-3,91.8,78.5,72.9,73.6,71.6,67.9,99,82,46,29.94,29.44,4,2,9,0.07
2012-9-4,80.1,78.3,76.1,74.3,73.7,73.3,91,86,81,29.48,29.45,1,0,2,0.19
2012-9-5,83.7,79.5,72.9,74.9,72.9,71.0,97,81,69,29.52,29.41,5,3,8,0.28
2012-9-6,91.8,79.7,70.0,72.4,50.0,42.7,78,37,25,29.61,29.48,5,2,11,0.00
2012-9-14,69.4,61.5,58.5,51.2,49.1,47.2,68,64,51,29.95,29.91,1,0,2,0.21
2012-9-15,74.8,64.0,53.2,53.2,48.9,45.9,83,60,37,29.94,29.77,3,0,8,0.00
2012-9-16,77.7,64.8,53.1,62.5,55.6,48.7,91,73,55,29.77,29.60,4,1,11,0.01
2012-9-17,77.9,65.9,56.5,66.8,60.9,47.6,99,85,61,29.60,29.39,6,1,22,0.02
2012-9-18,68.2,55.4,46.6,47.6,42.6,35.3,96,66,34,29.69,29.50,4,2,22,0.00
2012-9-19,76.8,61.1,46.0,51.4,44.6,39.1,78,57,32,29.72,29.51,8,3,21,0.00
2012-9-20,74.5,64.6,54.9,52.4,42.0,24.4,85,49,16,30.02,29.52,6,2,21,0.00
2012-9-21,80.8,64.5,52.2,59.3,47.8,36.2,86,56,30,30.02,29.68,9,2,17,0.00
2012-9-22,65.3,54.2,46.9,49.5,38.9,22.3,99,62,27,30.25,29.90,5,2,17,0.00
2012-9-23,68.2,52.4,39.4,42.6,33.7,21.5,92,55,18,30.34,30.24,5,1,13,0.00
2012-9-24,73.0,57.7,42.1,47.5,36.8,30.6,65,48,24,30.27,29.95,7,2,16,0.00
2012-9-25,77.9,64.7,56.5,67.1,60.1,47.3,99,86,63,29.95,29.82,5,1,11,1.61
2012-9-26,72.3,67.5,63.9,66.3,63.6,60.9,95,88,74,30.10,29.89,7,2,16,0.04
2012-9-27,72.9,63.0,56.7,62.5,52.7,44.9,96,70,51,30.22,30.09,3,1,11,0.00
2012-9-28,72.0,59.9,49.8,49.7,46.7,42.4,89,64,36,30.23,30.12,4,1,11,0.00
2012-9-29,78.1,61.4,47.5,53.4,47.0,41.1,93,63,27,30.17,30.00,3,1,8,0.00
2012-9-30,74.8,63.4,51.4,49.2,46.5,42.7,84,56,34,29.99,29.87,2,1,8,0.00
2012-10-1,65.7,57.8,50.7,48.9,45.9,42.5,84,66,45,29.91,29.81,3,1,9,0.00
2012-10-2,75.0,59.3,46.8,55.0,48.6,43.4,89,70,38,29.91,29.81,4,1,12,0.05
2012-10-3,71.6,63.3,57.7,56.5,53.2,46.7,85,71,41,30.06,29.90,3,1,8,0.00
2012-10-4,78.3,61.9,47.7,59.0,52.4,44.5,97,73,48,30.24,30.06,9,3,19,0.73
2012-10-5,47.7,44.1,37.6,47.1,40.2,32.8,98,86,63,30.28,30.17,3,1,10,0.73
2012-10-6,48.6,40.0,35.1,34.1,31.3,28.6,87,72,51,30.27,30.20,4,1,11,0.02
2012-10-7,54.1,43.0,35.6,34.8,29.9,24.7,84,62,33,30.28,30.18,5,1,12,0.00
2012-10-8,61.2,47.4,35.8,35.8,31.5,26.4,80,56,31,30.20,30.04,8,2,19,0.00
2012-10-9,67.6,52.8,42.3,45.7,41.0,34.3,93,66,40,30.06,29.89,9,3,19,0.14
2012-10-10,58.6,45.7,35.4,42.4,33.5,26.8,97,66,34,30.27,30.04,6,2,14,0.00
2012-10-11,68.4,52.4,39.4,45.1,38.2,31.8,76,60,38,30.23,30.10,7,2,16,0.00
2012-10-12,64.4,53.4,44.8,45.7,40.9,33.2,77,63,44,30.40,30.21,5,1,14,0.00
2012-10-13,73.0,62.1,53.6,65.2,58.4,45.5,99,88,72,30.23,29.77,6,2,15,2.59
2012-10-14,72.0,62.0,53.4,65.1,56.9,47.3,98,84,64,29.94,29.59,13,5,27,0.41
2012-10-15,69.6,55.1,45.5,47.9,44.8,42.5,90,70,39,30.02,29.93,4,1,8,0.00
2012-10-16,79.7,63.4,49.8,55.3,48.9,43.3,80,61,42,29.95,29.58,7,2,17,0.00
2012-10-17,64.2,59.1,51.4,60.7,52.9,46.8,98,81,55,29.63,29.34,8,2,20,0.92
2012-10-18,55.8,50.0,45.5,46.6,37.8,31.2,90,64,40,29.59,29.50,13,8,31,0.04
2012-10-19,52.9,48.3,44.2,45.4,43.5,40.9,93,84,68,29.77,29.49,8,5,19,0.02
2012-10-20,61.2,50.7,46.2,46.9,44.9,43.5,94,81,55,29.92,29.77,4,1,9,0.02
2012-10-21,79.5,60.8,46.4,60.3,51.6,43.0,88,74,49,29.97,29.89,4,0,8,0.00
2012-10-22,76.8,68.0,62.6,65.3,61.6,57.9,92,80,66,29.96,29.87,4,1,12,0.60
2012-10-23,75.6,68.6,63.9,64.3,61.8,59.9,89,79,67,29.95,29.86,7,2,15,0.00
2012-10-24,83.1,71.4,63.0,65.8,61.2,57.1,82,71,55,29.96,29.85,6,2,14,0.00
2012-10-25,77.2,61.0,42.4,63.8,53.4,35.4,90,77,60,30.19,29.75,10,4,21,0.34
2012-10-26,50.4,42.0,35.1,35.8,29.7,27.0,77,62,44,30.37,30.19,8,3,21,0.02
2012-10-27,48.9,38.6,30.4,31.2,27.6,24.4,79,65,46,30.36,30.25,4,2,11,0.00
2012-10-28,49.3,39.1,30.9,35.6,29.6,24.6,77,69,56,30.30,30.24,4,1,9,0.00
2012-10-29,55.8,40.5,30.6,35.3,27.6,22.4,81,62,29,30.34,30.14,4,1,11,0.00
2012-10-30,57.7,43.4,33.6,28.9,23.2,17.1,65,47,21,30.14,29.88,7,3,18,0.00
2012-10-31,54.5,40.8,30.4,29.1,22.1,14.8,75,50,21,29.98,29.92,5,2,14,0.00
2012-11-1,60.1,47.2,34.2,40.1,31.2,21.4,66,54,39,30.00,29.87,7,2,13,0.00
2012-11-2,54.0,43.0,33.1,34.1,30.8,27.1,79,63,42,30.12,29.94,4,1,13,0.00
2012-11-3,46.9,41.1,34.5,38.4,35.3,29.8,88,80,60,30.22,30.03,6,2,13,0.39
2012-11-4,46.8,39.2,30.2,36.1,32.7,27.1,89,78,62,30.28,30.17,2,0,6,0.00
2012-11-5,43.9,40.8,38.7,38.6,36.1,34.2,87,83,75,30.17,30.09,1,0,7,0.28
2012-11-6,43.9,41.9,39.9,40.8,38.2,35.7,91,87,83,30.10,29.91,6,2,12,0.14
2012-11-7,45.3,42.6,39.9,39.4,36.5,34.1,87,79,67,30.20,29.93,4,1,12,0.02
2012-11-8,57.2,43.9,33.1,40.2,35.2,28.8,87,72,51,30.23,30.05,4,1,11,0.00
2012-11-9,70.9,56.0,42.6,52.1,45.1,36.3,79,68,49,30.08,29.90,5,1,13,0.00
2012-11-10,79.9,64.7,55.8,55.0,49.5,42.8,79,59,28,29.97,29.85,8,3,21,0.00
2012-11-11,67.6,55.7,33.8,55.7,47.7,28.3,92,75,62,30.10,29.75,9,4,22,1.28
2012-11-12,43.3,33.9,26.1,28.4,21.3,16.1,81,60,42,30.43,30.08,10,3,19,0.00
2012-11-13,50.2,35.8,25.0,25.8,21.6,17.4,75,58,30,30.54,30.42,3,1,8,0.00
2012-11-14,52.9,39.1,32.5,30.2,26.2,23.5,71,61,35,30.51,30.37,3,0,9,0.00
2012-11-15,55.6,40.0,30.2,33.0,27.7,23.0,77,63,33,30.39,30.32,3,0,7,0.00
2012-11-16,61.0,44.6,33.8,37.7,31.5,25.7,73,61,39,30.46,30.38,4,0,8,0.00
2012-11-17,59.5,44.4,35.1,36.5,31.5,26.4,77,62,30,30.52,30.40,2,0,8,0.00
2012-11-18,63.3,47.6,36.5,37.3,33.4,28.2,77,60,30,30.41,30.29,3,1,8,0.00
2012-11-19,54.5,48.2,43.5,42.0,38.1,33.6,75,68,61,30.29,30.11,4,1,9,0.00
2012-11-20,64.0,49.7,42.6,50.3,43.9,37.8,95,81,60,30.21,30.08,3,1,8,0.00
2012-11-21,60.3,46.5,38.5,52.3,43.6,38.0,98,90,64,30.28,30.12,4,1,8,0.00
2012-11-22,66.7,54.8,45.1,52.9,45.1,36.8,89,72,49,30.12,29.87,9,3,17,0.04
2012-11-23,46.8,35.7,25.2,37.1,22.4,14.0,78,59,44,30.34,30.10,9,5,21,0.00
2012-11-24,35.6,27.3,19.0,20.6,16.2,9.9,73,63,50,30.34,29.99,4,2,11,0.00
2012-11-25,48.6,39.9,30.4,30.8,26.0,20.4,70,58,47,30.09,29.90,5,2,11,0.00
2012-11-26,43.2,32.8,24.8,27.5,21.7,13.0,78,64,45,30.40,30.07,6,2,13,0.00
2012-11-27,38.3,26.7,16.9,17.2,13.0,8.5,70,57,32,30.46,30.30,5,1,9,0.00
2012-11-28,50.0,35.5,25.5,29.7,21.8,13.8,67,57,44,30.44,30.28,4,1,10,0.00
2012-11-29,57.0,43.4,32.5,37.4,30.7,23.7,75,61,46,30.29,30.04,4,2,10,0.00
2012-11-30,63.9,49.5,39.4,41.7,36.4,30.7,76,62,42,30.10,30.04,9,2,16,0.00
2012-12-1,65.8,55.3,43.7,53.8,47.1,37.5,90,74,64,30.10,29.91,4,2,14,0.00
2012-12-2,70.7,60.6,55.2,57.0,52.8,48.7,89,76,55,30.03,29.90,5,2,11,0.00
2012-12-3,73.6,64.2,55.0,60.1,56.2,50.3,90,76,58,30.00,29.81,7,3,17,0.18
2012-12-4,59.4,50.5,42.8,50.1,40.4,31.9,87,69,46,30.30,29.96,3,1,12,0.50
2012-12-5,50.0,40.8,32.9,37.4,32.1,26.2,79,71,59,30.40,30.16,4,1,9,0.00
2012-12-6,52.2,43.9,36.3,40.7,36.0,28.8,85,74,61,30.17,29.93,4,2,9,0.07
2012-12-7,46.8,45.4,43.9,43.7,42.3,40.4,91,89,85,29.95,29.83,3,1,9,0.18
2012-12-8,45.3,40.8,38.3,42.9,37.6,35.0,94,88,82,30.03,29.86,4,2,10,0.07
2012-12-9,45.3,41.6,32.0,42.6,37.8,24.4,91,86,73,29.99,29.77,7,3,19,0.12
2012-12-10,31.6,27.2,24.8,24.3,18.4,16.1,75,69,64,30.05,29.87,7,4,17,0.00
2012-12-11,40.5,28.7,19.9,25.1,18.0,13.6,76,64,48,30.21,30.04,8,2,17,0.00
2012-12-12,50.2,36.3,27.1,27.1,21.9,16.0,68,57,36,30.31,30.20,5,2,11,0.00
2012-12-13,52.2,39.3,30.4,30.4,24.9,21.3,69,57,39,30.29,30.13,6,2,16,0.00
2012-12-14,55.2,44.8,33.3,36.0,30.3,22.1,76,57,38,30.21,29.96,4,2,8,0.04
2012-12-15,54.9,49.1,42.1,46.9,42.6,35.3,86,78,70,29.95,29.58,5,3,17,0.53
2012-12-16,49.6,43.3,38.7,43.1,36.8,32.7,82,78,74,29.78,29.67,5,2,12,0.00
2012-12-17,38.7,35.5,32.7,33.0,30.6,28.1,84,82,78,29.79,29.69,3,1,5,0.18
2012-12-18,55.8,39.9,31.6,38.4,31.2,26.1,85,72,49,29.91,29.60,12,4,24,0.30
2012-12-19,46.0,36.1,29.8,40.9,30.9,24.5,86,81,75,30.04,29.52,4,1,13,0.05
2012-12-20,53.6,37.7,23.5,48.2,31.6,13.9,86,78,66,29.90,29.18,17,8,32,0.23
2012-12-21,33.3,23.7,18.5,14.4,10.4,6.2,67,57,41,30.29,29.90,9,5,21,0.00
2012-12-22,41.7,27.6,14.2,25.0,14.8,5.3,68,59,43,30.29,29.92,3,2,8,0.00
2012-12-23,38.5,31.2,25.2,27.8,21.8,16.5,81,68,59,30.00,29.89,4,2,9,0.00
2012-12-24,30.6,25.6,20.3,25.5,18.5,9.2,83,74,61,30.15,29.84,6,3,13,0.00
2012-12-25,28.0,24.7,21.6,17.5,15.8,12.7,76,68,62,30.31,30.09,6,3,15,0.00
2012-12-26,30.4,26.7,24.8,20.9,17.7,16.3,72,68,64,30.17,29.99,7,4,20,0.00
2012-12-27,34.2,27.3,22.3,20.7,17.7,15.3,74,67,53,30.21,30.08,3,1,7,0.00
2012-12-28,33.3,30.6,27.0,25.4,23.1,18.2,76,73,69,30.09,29.90,4,1,7,0.00
2012-12-29,30.6,25.3,18.5,24.1,16.0,8.4,78,68,55,30.32,29.91,8,4,17,0.00
2012-12-30,43.9,29.5,18.0,25.0,17.7,8.8,71,61,44,30.39,30.15,8,3,14,0.00
2012-12-31,36.3,31.1,20.8,28.7,22.7,13.9,83,72,49,30.17,30.08,6,2,11,0.02
2013-1-1,24.4,17.4,8.1,14.2,7.2,-1.7,75,64,52,30.27,30.14,0,0,0,0.00